Time;durP1;ratioP1;P1;durP2;ratioP2;P2;SDS_P1;SDS_P2;PMS_P1;PMS_P2;Temp;Humidity;BMP_temperature;BMP_pressure;BME280_temperature;BME280_humidity;BME280_pressure;Samples;Min_cycle;Max_cycle;Signal;HPM_P1;HPM_P2
2024/03/16 00:00:49;;;;;;;1.08;0.50;;;9.00;30.30;;;;;;4987191;28;20448;-85
2024/03/16 00:03:19;;;;;;;1.15;0.55;;;9.00;27.50;;;;;;4986391;28;20073;-83
2024/03/16 00:05:47;;;;;;;0.43;0.22;;;8.90;24.00;;;;;;4967093;28;20601;-85
2024/03/16 00:08:14;;;;;;;0.60;0.40;;;8.90;20.10;;;;;;4985013;28;20049;-85
2024/03/16 00:10:41;;;;;;;0.40;0.40;;;8.90;34.80;;;;;;4986340;28;20561;-85
2024/03/16 00:13:08;;;;;;;0.52;0.40;;;8.90;43.30;;;;;;4986651;28;20092;-85
2024/03/16 00:15:35;;;;;;;0.57;0.40;;;8.90;26.70;;;;;;4984782;28;20178;-85
2024/03/16 00:18:03;;;;;;;0.30;0.30;;;9.00;21.50;;;;;;4975893;28;20041;-85
2024/03/16 00:20:31;;;;;;;1.13;0.60;;;9.00;13.90;;;;;;5002857;28;20081;-84
2024/03/16 00:22:59;;;;;;;0.60;0.60;;;9.10;21.00;;;;;;4985788;28;20132;-85
2024/03/16 00:25:26;;;;;;;0.43;0.43;;;9.10;26.50;;;;;;4984882;28;20101;-84
2024/03/16 00:27:54;;;;;;;0.30;0.30;;;9.10;20.30;;;;;;4991211;28;20042;-84
2024/03/16 00:30:23;;;;;;;0.38;0.30;;;9.10;13.60;;;;;;4970200;28;20160;-85
2024/03/16 00:32:51;;;;;;;0.85;0.50;;;9.20;35.30;;;;;;4985918;28;20588;-84
2024/03/16 00:35:19;;;;;;;0.90;0.50;;;9.10;22.00;;;;;;4970964;28;20063;-84
2024/03/16 00:37:47;;;;;;;0.60;0.60;;;9.20;25.00;;;;;;4984754;28;20608;-84
2024/03/16 00:40:17;;;;;;;1.88;0.43;;;9.10;18.70;;;;;;4987279;28;20385;-85
2024/03/16 00:42:50;;;;;;;0.40;0.40;;;9.10;17.80;;;;;;4987316;28;20748;-85
2024/03/16 00:45:18;;;;;;;0.50;0.50;;;9.00;21.30;;;;;;5002706;28;20133;-85
2024/03/16 00:47:46;;;;;;;0.52;0.45;;;9.00;24.00;;;;;;4986497;28;20057;-85
2024/03/16 00:50:14;;;;;;;0.40;0.40;;;9.00;23.40;;;;;;4986919;28;20359;-85
2024/03/16 00:52:41;;;;;;;0.40;0.40;;;9.00;14.20;;;;;;5003059;28;20141;-85
2024/03/16 00:55:09;;;;;;;1.60;0.70;;;8.90;22.00;;;;;;4981660;28;20445;-84
2024/03/16 00:57:45;;;;;;;0.20;0.20;;;8.90;19.20;;;;;;5001177;28;20068;-84
2024/03/16 01:00:14;;;;;;;0.50;0.50;;;8.90;26.10;;;;;;4986861;28;20310;-84
2024/03/16 01:02:42;;;;;;;0.57;0.40;;;8.90;23.60;;;;;;4991265;28;20514;-84
2024/03/16 01:05:11;;;;;;;0.40;0.40;;;8.90;27.80;;;;;;4972171;28;20048;-85
2024/03/16 01:07:39;;;;;;;0.88;0.52;;;8.90;21.80;;;;;;4985549;28;20135;-84
2024/03/16 01:10:06;;;;;;;0.45;0.40;;;8.90;24.80;;;;;;4986625;28;20400;-85
2024/03/16 01:12:37;;;;;;;0.45;0.40;;;8.90;19.10;;;;;;4987443;28;20054;-84
2024/03/16 01:15:07;;;;;;;0.50;0.50;;;8.90;46.60;;;;;;4974713;28;20157;-86
2024/03/16 01:17:33;;;;;;;0.50;0.50;;;8.90;20.00;;;;;;4983615;28;20058;-85
2024/03/16 01:20:01;;;;;;;0.40;0.40;;;8.90;28.70;;;;;;4974956;28;20563;-85
2024/03/16 01:22:29;;;;;;;0.75;0.57;;;8.80;24.30;;;;;;4986772;28;20539;-85
2024/03/16 01:24:57;;;;;;;0.82;0.60;;;8.80;20.10;;;;;;4978042;28;20065;-85
2024/03/16 01:27:26;;;;;;;0.38;0.38;;;8.80;32.40;;;;;;5003077;28;20046;-85
2024/03/16 01:29:54;;;;;;;0.40;0.40;;;8.90;24.50;;;;;;4985347;28;20509;-85
2024/03/16 01:32:21;;;;;;;0.40;0.40;;;8.90;24.10;;;;;;4984817;28;20248;-85
2024/03/16 01:34:48;;;;;;;0.30;0.30;;;8.90;25.20;;;;;;4960925;28;20101;-84
2024/03/16 01:37:23;;;;;;;0.47;0.45;;;9.00;27.60;;;;;;4969811;28;20112;-84
2024/03/16 01:39:50;;;;;;;0.47;0.32;;;9.00;27.30;;;;;;4983787;28;20065;-85
2024/03/16 01:42:20;;;;;;;0.80;0.50;;;9.00;33.80;;;;;;4983347;28;20058;-84
2024/03/16 01:45:04;;;;;;;0.30;0.30;;;9.10;28.20;;;;;;4990451;28;20054;-84
2024/03/16 01:47:32;;;;;;;0.60;0.35;;;9.10;31.30;;;;;;4986929;28;20420;-84
2024/03/16 01:50:00;;;;;;;0.73;0.50;;;9.10;29.20;;;;;;4985912;28;20141;-84
2024/03/16 01:52:27;;;;;;;0.40;0.40;;;9.10;22.90;;;;;;5001812;28;20068;-85
2024/03/16 01:54:54;;;;;;;0.77;0.60;;;9.10;17.40;;;;;;4968467;28;20047;-84
2024/03/16 01:57:21;;;;;;;0.50;0.50;;;9.10;24.00;;;;;;4985707;28;20064;-84
2024/03/16 01:59:56;;;;;;;0.68;0.47;;;9.00;27.30;;;;;;4985154;28;20050;-84
2024/03/16 02:02:38;;;;;;;0.57;0.30;;;9.10;19.50;;;;;;4984854;28;20073;-84
2024/03/16 02:05:06;;;;;;;0.57;0.40;;;9.00;21.20;;;;;;4988433;28;20054;-85
2024/03/16 02:07:39;;;;;;;0.90;0.30;;;9.10;27.30;;;;;;4988918;28;20131;-83
2024/03/16 02:10:09;;;;;;;0.30;0.30;;;9.00;21.70;;;;;;5005055;28;20147;-84
2024/03/16 02:12:37;;;;;;;1.02;0.30;;;9.00;23.40;;;;;;4990065;28;20060;-85
2024/03/16 02:15:05;;;;;;;0.30;0.30;;;9.00;24.90;;;;;;4972910;28;20054;-85
2024/03/16 02:17:31;;;;;;;0.40;0.40;;;9.00;28.00;;;;;;4989122;28;20632;-84
2024/03/16 02:19:58;;;;;;;0.50;0.50;;;9.00;28.20;;;;;;4972591;28;20509;-84
2024/03/16 02:22:29;;;;;;;0.70;0.45;;;9.00;29.90;;;;;;4988875;28;20132;-85
2024/03/16 02:24:57;;;;;;;0.40;0.40;;;9.00;25.20;;;;;;4985766;28;20204;-84
2024/03/16 02:27:25;;;;;;;0.28;0.28;;;9.00;53.20;;;;;;5004690;28;20054;-85
2024/03/16 02:29:54;;;;;;;0.32;0.30;;;9.00;25.70;;;;;;4987690;28;20057;-84
2024/03/16 02:32:22;;;;;;;2.03;0.85;;;9.00;28.70;;;;;;4991518;28;20426;-85
2024/03/16 02:34:51;;;;;;;0.40;0.40;;;9.00;31.00;;;;;;4971185;28;20494;-84
2024/03/16 02:37:19;;;;;;;0.50;0.50;;;9.00;33.70;;;;;;5008032;28;20141;-85
2024/03/16 02:39:47;;;;;;;0.35;0.32;;;9.00;30.50;;;;;;5007935;28;20060;-85
2024/03/16 02:42:16;;;;;;;0.43;0.43;;;9.10;15.30;;;;;;4992058;28;20136;-85
2024/03/16 02:44:46;;;;;;;0.57;0.45;;;9.10;28.00;;;;;;4984788;28;20064;-85
2024/03/16 02:47:13;;;;;;;0.40;0.40;;;9.10;31.00;;;;;;4988498;28;20338;-84
2024/03/16 02:49:40;;;;;;;0.35;0.35;;;9.10;32.10;;;;;;4982457;28;20046;-85
2024/03/16 02:52:09;;;;;;;0.40;0.35;;;9.10;29.00;;;;;;4989379;28;20053;-85
2024/03/16 02:54:37;;;;;;;0.50;0.50;;;9.10;33.10;;;;;;4978509;28;20057;-85
2024/03/16 02:57:06;;;;;;;0.45;0.40;;;9.10;35.10;;;;;;5007554;28;20081;-84
2024/03/16 02:59:36;;;;;;;0.30;0.30;;;9.10;33.50;;;;;;4980827;28;20457;-84
2024/03/16 03:02:03;;;;;;;0.38;0.38;;;9.10;29.10;;;;;;4972197;28;20046;-85
2024/03/16 03:04:32;;;;;;;0.52;0.40;;;9.10;31.10;;;;;;4975277;28;20413;-85
2024/03/16 03:07:06;;;;;;;0.40;0.40;;;9.10;20.90;;;;;;4971332;28;20073;-85
2024/03/16 03:09:34;;;;;;;0.45;0.45;;;9.10;33.40;;;;;;4971203;28;20077;-85
2024/03/16 03:12:04;;;;;;;3.03;0.60;;;9.10;36.80;;;;;;4991141;28;20052;-85
2024/03/16 03:14:32;;;;;;;0.38;0.32;;;9.10;23.70;;;;;;4985675;28;20054;-85
2024/03/16 03:17:00;;;;;;;0.60;0.40;;;9.20;15.10;;;;;;4956053;28;20057;-85
2024/03/16 03:19:27;;;;;;;0.40;0.40;;;9.20;32.80;;;;;;4956722;28;20085;-85
2024/03/16 03:21:54;;;;;;;0.70;0.50;;;9.20;27.20;;;;;;4987193;28;20066;-85
2024/03/16 03:24:21;;;;;;;1.13;0.50;;;9.20;28.80;;;;;;4996755;28;20508;-85
2024/03/16 03:26:49;;;;;;;0.40;0.40;;;9.20;33.40;;;;;;4990595;28;20056;-83
2024/03/16 03:29:16;;;;;;;0.30;0.30;;;9.30;44.80;;;;;;4990437;28;20054;-85
2024/03/16 03:31:44;;;;;;;0.50;0.50;;;9.30;35.70;;;;;;4990452;28;20200;-84
2024/03/16 03:34:12;;;;;;;0.40;0.40;;;9.30;26.40;;;;;;4990327;28;20198;-84
2024/03/16 03:36:43;;;;;;;0.50;0.50;;;9.30;32.40;;;;;;4990208;28;20042;-84
2024/03/16 03:39:19;;;;;;;0.50;0.50;;;9.30;44.50;;;;;;4991215;28;20125;-86
2024/03/16 03:41:48;;;;;;;0.32;0.32;;;9.30;30.40;;;;;;5007531;28;20470;-84
2024/03/16 03:44:24;;;;;;;0.52;0.20;;;9.30;36.90;;;;;;4980972;28;20648;-84
2024/03/16 03:46:51;;;;;;;0.40;0.40;;;9.30;40.10;;;;;;4976869;28;20355;-85
2024/03/16 03:49:26;;;;;;;0.52;0.40;;;9.30;33.20;;;;;;4984328;28;20065;-85
2024/03/16 03:51:59;;;;;;;0.40;0.40;;;9.30;31.90;;;;;;5005423;28;20054;-84
2024/03/16 03:54:33;;;;;;;0.55;0.55;;;9.30;36.20;;;;;;4975043;28;20092;-85
2024/03/16 03:57:01;;;;;;;0.40;0.40;;;9.30;34.90;;;;;;4986684;28;20174;-85
2024/03/16 03:59:28;;;;;;;0.47;0.43;;;9.40;36.20;;;;;;4986703;28;20339;-85
2024/03/16 04:01:55;;;;;;;0.30;0.30;;;9.40;40.60;;;;;;5005962;28;20446;-84
2024/03/16 04:04:23;;;;;;;0.30;0.30;;;9.40;40.30;;;;;;4989917;28;20473;-83
2024/03/16 04:06:51;;;;;;;0.35;0.35;;;9.40;38.80;;;;;;4973942;28;20343;-85
2024/03/16 04:09:18;;;;;;;0.40;0.40;;;9.40;32.30;;;;;;5005758;28;20085;-84
2024/03/16 04:11:47;;;;;;;0.20;0.20;;;9.40;39.80;;;;;;5006689;28;20093;-85
2024/03/16 04:14:15;;;;;;;0.30;0.30;;;9.40;27.10;;;;;;4964757;28;20054;-85
2024/03/16 04:16:42;;;;;;;0.30;0.30;;;9.40;28.30;;;;;;4954951;28;20121;-85
2024/03/16 04:19:09;;;;;;;0.40;0.40;;;9.40;38.70;;;;;;4970945;28;20046;-84
2024/03/16 04:21:35;;;;;;;0.50;0.50;;;9.50;40.40;;;;;;4994388;28;20084;-84
2024/03/16 04:24:03;;;;;;;0.55;0.55;;;9.40;41.70;;;;;;4978241;28;20070;-84
2024/03/16 04:26:29;;;;;;;0.30;0.30;;;9.50;40.20;;;;;;4954398;28;20051;-85
2024/03/16 04:28:56;;;;;;;0.40;0.40;;;9.50;45.20;;;;;;4954495;28;20086;-84
2024/03/16 04:31:23;;;;;;;0.40;0.40;;;9.50;40.70;;;;;;4958384;28;20054;-84
2024/03/16 04:33:51;;;;;;;0.40;0.40;;;9.50;60.60;;;;;;4965393;28;20050;-84
2024/03/16 04:36:19;;;;;;;0.95;0.65;;;9.50;46.10;;;;;;5005346;28;20054;-84
2024/03/16 04:38:47;;;;;;;0.40;0.40;;;9.50;50.70;;;;;;4989435;28;20045;-85
2024/03/16 04:41:14;;;;;;;0.40;0.40;;;9.50;39.00;;;;;;5005593;28;20057;-84
2024/03/16 04:43:41;;;;;;;0.20;0.20;;;9.50;47.10;;;;;;4988969;28;20054;-84
2024/03/16 04:46:08;;;;;;;0.45;0.45;;;9.40;46.80;;;;;;4987088;28;20053;-84
2024/03/16 04:48:45;;;;;;;0.32;0.32;;;9.40;41.40;;;;;;4989397;28;20053;-84
2024/03/16 04:51:14;;;;;;;0.47;0.40;;;9.40;47.70;;;;;;5004055;28;20085;-84
2024/03/16 04:53:41;;;;;;;0.43;0.43;;;9.40;71.40;;;;;;4988570;28;20050;-85
2024/03/16 04:56:08;;;;;;;0.40;0.40;;;9.30;75.80;;;;;;4972768;28;20053;-84
2024/03/16 04:58:35;;;;;;;0.32;0.32;;;9.30;79.20;;;;;;5005021;28;20064;-84
2024/03/16 05:01:03;;;;;;;0.32;0.32;;;9.20;74.80;;;;;;4988271;28;20220;-84
2024/03/16 05:03:30;;;;;;;0.40;0.40;;;9.20;80.20;;;;;;4984589;28;20470;-84
2024/03/16 05:05:59;;;;;;;0.40;0.40;;;9.20;89.60;;;;;;4985352;28;20085;-84
2024/03/16 05:08:29;;;;;;;0.35;0.35;;;9.20;90.00;;;;;;4969319;28;20109;-85
2024/03/16 05:11:00;;;;;;;0.50;0.50;;;9.20;91.10;;;;;;4970342;28;20057;-84
2024/03/16 05:13:27;;;;;;;0.30;0.30;;;9.10;87.50;;;;;;4985075;28;20072;-84
2024/03/16 05:15:57;;;;;;;0.40;0.40;;;9.10;93.30;;;;;;4986324;28;20049;-84
2024/03/16 05:18:24;;;;;;;0.43;0.40;;;9.10;97.70;;;;;;4972219;28;20061;-84
2024/03/16 05:20:51;;;;;;;0.30;0.30;;;9.10;91.90;;;;;;4988969;28;20090;-84
2024/03/16 05:23:21;;;;;;;0.40;0.40;;;9.10;86.10;;;;;;4988224;28;20053;-85
2024/03/16 05:25:48;;;;;;;0.45;0.43;;;9.10;84.90;;;;;;5003866;28;20081;-84
2024/03/16 05:28:16;;;;;;;0.30;0.30;;;9.10;81.70;;;;;;5004944;28;20057;-84
2024/03/16 05:30:45;;;;;;;0.38;0.38;;;9.10;80.00;;;;;;4973182;28;20042;-84
2024/03/16 05:33:14;;;;;;;0.40;0.40;;;9.10;87.10;;;;;;4987723;28;20058;-84
2024/03/16 05:35:43;;;;;;;0.57;0.50;;;9.10;89.00;;;;;;4969427;28;20533;-84
2024/03/16 05:38:11;;;;;;;0.52;0.43;;;9.10;82.30;;;;;;4976666;28;20472;-83
2024/03/16 05:40:40;;;;;;;0.40;0.40;;;9.10;81.20;;;;;;4976223;28;20057;-85
2024/03/16 05:43:07;;;;;;;0.40;0.40;;;9.10;81.40;;;;;;5003735;28;20053;-84
2024/03/16 05:45:35;;;;;;;0.22;0.22;;;9.10;73.80;;;;;;4971096;28;20087;-84
2024/03/16 05:48:03;;;;;;;0.40;0.40;;;9.10;71.00;;;;;;5008851;28;20050;-85
2024/03/16 05:50:30;;;;;;;0.40;0.40;;;9.00;63.70;;;;;;5008356;28;20061;-84
2024/03/16 05:52:58;;;;;;;0.40;0.40;;;9.00;68.20;;;;;;4991697;28;20512;-84
2024/03/16 05:55:33;;;;;;;0.40;0.40;;;9.00;72.40;;;;;;5008449;28;20136;-84
2024/03/16 05:58:03;;;;;;;0.22;0.22;;;8.90;91.30;;;;;;4992319;28;20421;-85
2024/03/16 06:00:30;;;;;;;0.30;0.30;;;8.90;80.90;;;;;;5008787;28;20444;-84
2024/03/16 06:03:05;;;;;;;0.30;0.30;;;8.90;80.40;;;;;;4986414;28;20061;-85
2024/03/16 06:05:35;;;;;;;0.40;0.40;;;8.90;73.10;;;;;;4998312;28;20073;-85
2024/03/16 06:08:05;;;;;;;0.40;0.40;;;8.90;81.70;;;;;;4988623;28;20504;-84
2024/03/16 06:10:34;;;;;;;0.40;0.40;;;8.80;87.60;;;;;;4989680;28;20133;-85
2024/03/16 06:13:04;;;;;;;0.35;0.35;;;8.80;77.10;;;;;;4983612;28;20105;-84
2024/03/16 06:15:31;;;;;;;0.40;0.40;;;8.80;73.90;;;;;;4982717;28;20161;-84
2024/03/16 06:18:00;;;;;;;0.30;0.30;;;8.80;81.10;;;;;;5004221;28;20054;-85
2024/03/16 06:20:27;;;;;;;0.38;0.35;;;8.80;81.60;;;;;;4988912;28;20061;-84
2024/03/16 06:23:03;;;;;;;0.40;0.40;;;8.80;93.10;;;;;;4964473;28;20058;-84
2024/03/16 06:25:46;;;;;;;0.30;0.30;;;8.80;96.30;;;;;;5004466;28;20571;-84
2024/03/16 06:28:21;;;;;;;0.35;0.35;;;8.80;98.30;;;;;;4971000;28;20153;-86
2024/03/16 06:30:49;;;;;;;0.30;0.30;;;8.70;94.70;;;;;;4991446;28;20045;-86
2024/03/16 06:33:30;;;;;;;0.30;0.30;;;8.70;92.10;;;;;;4984285;28;20085;-86
2024/03/16 06:36:00;;;;;;;0.30;0.30;;;8.70;99.00;;;;;;4977905;28;20046;-86
2024/03/16 06:38:29;;;;;;;0.63;0.30;;;8.70;99.90;;;;;;4990614;28;20092;-87
2024/03/16 06:40:58;;;;;;;0.38;0.38;;;8.70;99.90;;;;;;4990039;28;20454;-85
2024/03/16 06:43:27;;;;;;;0.30;0.30;;;8.70;99.90;;;;;;4982671;28;20101;-86
2024/03/16 06:45:57;;;;;;;0.50;0.40;;;8.70;99.90;;;;;;4970836;28;20054;-85
2024/03/16 06:48:28;;;;;;;0.30;0.30;;;8.70;99.90;;;;;;5005461;28;20053;-86
2024/03/16 06:50:55;;;;;;;0.35;0.30;;;8.70;99.90;;;;;;5006092;28;20050;-85
2024/03/16 06:53:24;;;;;;;0.38;0.38;;;8.70;99.90;;;;;;4987849;28;20469;-86
2024/03/16 06:55:52;;;;;;;0.40;0.40;;;8.70;99.90;;;;;;5006775;28;20046;-85
2024/03/16 06:58:19;;;;;;;0.50;0.50;;;8.70;99.90;;;;;;4989699;28;20056;-86
2024/03/16 07:01:04;;;;;;;0.50;0.50;;;8.70;99.90;;;;;;4996910;28;20109;-95
2024/03/16 07:03:40;;;;;;;0.70;0.45;;;8.70;99.90;;;;;;4989613;28;20060;-94
2024/03/16 07:06:08;;;;;;;0.40;0.38;;;8.70;99.90;;;;;;4987737;28;20077;-92
2024/03/16 07:08:45;;;;;;;0.52;0.52;;;8.80;99.90;;;;;;5002710;28;20615;-96
2024/03/16 07:11:14;;;;;;;0.40;0.40;;;8.80;99.90;;;;;;4994538;28;20565;-96
2024/03/16 07:13:44;;;;;;;0.40;0.40;;;8.90;99.90;;;;;;4963568;28;20056;-96
2024/03/16 07:16:14;;;;;;;0.30;0.30;;;9.00;99.90;;;;;;4993554;28;20100;-96
2024/03/16 07:18:47;;;;;;;0.40;0.30;;;9.00;99.90;;;;;;4970562;28;20083;-96
2024/03/16 07:21:24;;;;;;;0.40;0.40;;;9.10;99.90;;;;;;4987639;28;20058;-96
2024/03/16 07:23:56;;;;;;;0.30;0.30;;;9.10;99.90;;;;;;5008198;28;20061;-94
2024/03/16 07:26:36;;;;;;;0.68;0.40;;;9.10;91.70;;;;;;4971969;28;20141;-93
2024/03/16 07:29:07;;;;;;;0.50;0.50;;;9.20;92.40;;;;;;4989037;28;20061;-94
2024/03/16 07:31:36;;;;;;;0.50;0.43;;;9.20;83.60;;;;;;4990214;28;20062;-93
2024/03/16 07:34:05;;;;;;;0.30;0.30;;;9.30;80.50;;;;;;4968277;28;20053;-91
2024/03/16 07:36:41;;;;;;;0.45;0.40;;;9.30;68.60;;;;;;4980840;28;20078;-94
2024/03/16 07:39:16;;;;;;;0.40;0.40;;;9.40;76.30;;;;;;4998340;28;20058;-93
2024/03/16 07:41:45;;;;;;;0.30;0.30;;;9.40;63.50;;;;;;4979015;28;20042;-94
2024/03/16 07:44:13;;;;;;;0.40;0.40;;;9.40;66.00;;;;;;4975691;28;20061;-95
2024/03/16 07:46:48;;;;;;;0.68;0.50;;;9.40;61.40;;;;;;4967059;28;20054;-95
2024/03/16 07:49:15;;;;;;;0.45;0.45;;;9.40;65.00;;;;;;4959591;28;20050;-95
2024/03/16 07:51:43;;;;;;;0.45;0.45;;;9.40;59.80;;;;;;4963602;28;20043;-91
2024/03/16 07:54:15;;;;;;;0.40;0.40;;;9.40;66.90;;;;;;4988411;28;20456;-94
2024/03/16 07:56:43;;;;;;;0.45;0.40;;;9.50;70.90;;;;;;4968532;28;20172;-90
2024/03/16 07:59:11;;;;;;;0.40;0.40;;;9.40;63.60;;;;;;4972146;28;20431;-91
2024/03/16 08:01:39;;;;;;;0.38;0.38;;;9.40;64.60;;;;;;4971240;28;20050;-90
2024/03/16 08:04:12;;;;;;;0.30;0.30;;;9.50;60.40;;;;;;4976816;28;20058;-90
2024/03/16 08:06:40;;;;;;;0.40;0.40;;;9.40;57.30;;;;;;4975435;28;20057;-91
2024/03/16 08:09:11;;;;;;;0.50;0.50;;;9.40;60.40;;;;;;4975923;28;20068;-90
2024/03/16 08:11:39;;;;;;;0.30;0.30;;;9.40;60.30;;;;;;4976519;28;20061;-87
2024/03/16 08:14:08;;;;;;;0.60;0.43;;;9.40;92.00;;;;;;4970891;28;20088;-93
2024/03/16 08:16:35;;;;;;;0.40;0.40;;;9.40;60.10;;;;;;4961268;28;20058;-92
2024/03/16 08:19:02;;;;;;;0.20;0.20;;;9.40;62.90;;;;;;4989641;28;20072;-91
2024/03/16 08:21:30;;;;;;;0.35;0.35;;;9.40;64.50;;;;;;4989551;28;20357;-91
2024/03/16 08:24:00;;;;;;;0.52;0.43;;;9.40;91.20;;;;;;4990652;28;20060;-87
2024/03/16 08:26:29;;;;;;;0.50;0.50;;;9.40;59.10;;;;;;4963751;28;20129;-88
2024/03/16 08:28:58;;;;;;;0.35;0.35;;;9.40;48.50;;;;;;4970727;28;20050;-87
2024/03/16 08:31:40;;;;;;;0.90;0.40;;;9.40;62.30;;;;;;4988378;28;20069;-91
2024/03/16 08:34:25;;;;;;;0.47;0.43;;;9.50;63.50;;;;;;4960937;28;20087;-95
2024/03/16 08:36:59;;;;;;;0.40;0.40;;;9.50;64.80;;;;;;4974235;28;20553;-94
2024/03/16 08:39:27;;;;;;;0.40;0.40;;;9.60;58.10;;;;;;4978411;28;20819;-95
2024/03/16 08:41:59;;;;;;;0.55;0.55;;;9.60;68.40;;;;;;4995084;28;20453;-95
2024/03/16 08:44:34;;;;;;;0.45;0.45;;;9.60;69.40;;;;;;4987723;28;20096;-94
2024/03/16 08:47:05;;;;;;;0.45;0.45;;;9.70;58.30;;;;;;4979937;28;20157;-93
2024/03/16 08:49:32;;;;;;;0.55;0.40;;;9.70;55.50;;;;;;4974380;28;20058;-79
2024/03/16 08:52:00;;;;;;;0.90;0.70;;;9.80;51.00;;;;;;4998742;28;20490;-80
2024/03/16 08:54:29;;;;;;;0.70;0.60;;;9.90;54.90;;;;;;4986510;28;20058;-83
2024/03/16 08:56:56;;;;;;;0.50;0.50;;;9.90;51.90;;;;;;4983933;28;20511;-83
2024/03/16 08:59:23;;;;;;;0.73;0.70;;;9.90;30.60;;;;;;4983983;28;20824;-83
2024/03/16 09:01:51;;;;;;;0.88;0.68;;;10.00;40.00;;;;;;4984273;28;20058;-86
2024/03/16 09:04:19;;;;;;;0.73;0.73;;;10.00;48.70;;;;;;4968895;28;20068;-83
2024/03/16 09:06:46;;;;;;;0.60;0.60;;;10.10;41.30;;;;;;4981626;28;20181;-83
2024/03/16 09:09:15;;;;;;;0.55;0.55;;;10.20;42.30;;;;;;4981519;28;20050;-82
2024/03/16 09:11:42;;;;;;;0.75;0.70;;;10.20;38.10;;;;;;4976638;28;20117;-79
2024/03/16 09:14:09;;;;;;;0.70;0.68;;;10.30;38.80;;;;;;4993200;28;20060;-81
2024/03/16 09:16:40;;;;;;;0.80;0.80;;;10.30;35.20;;;;;;4978109;28;20548;-80
2024/03/16 09:19:07;;;;;;;1.65;1.20;;;10.40;38.00;;;;;;4998732;28;20574;-80
2024/03/16 09:21:34;;;;;;;2.22;1.15;;;10.40;40.90;;;;;;4985571;28;20239;-81
2024/03/16 09:24:02;;;;;;;0.80;0.80;;;10.50;41.60;;;;;;4987378;28;20505;-79
2024/03/16 09:26:29;;;;;;;1.08;0.82;;;10.50;29.10;;;;;;4989546;28;20124;-80
2024/03/16 09:28:56;;;;;;;1.80;1.10;;;10.60;37.20;;;;;;5002426;28;20041;-80
2024/03/16 09:31:26;;;;;;;0.75;0.75;;;10.70;46.40;;;;;;4986008;28;20145;-82
2024/03/16 09:33:53;;;;;;;0.93;0.70;;;10.70;36.60;;;;;;4969624;28;20534;-82
2024/03/16 09:36:20;;;;;;;0.95;0.60;;;10.70;38.60;;;;;;4990664;28;20125;-83
2024/03/16 09:38:47;;;;;;;0.82;0.60;;;10.80;46.60;;;;;;4970414;28;20580;-81
2024/03/16 09:41:18;;;;;;;0.43;0.43;;;10.90;42.40;;;;;;4985877;28;20128;-83
2024/03/16 09:43:47;;;;;;;1.05;0.60;;;11.10;33.00;;;;;;4964244;28;20054;-89
2024/03/16 09:46:13;;;;;;;0.77;0.50;;;11.20;26.80;;;;;;4973089;28;20129;-78
2024/03/16 09:48:39;;;;;;;0.43;0.43;;;11.40;29.80;;;;;;4970017;28;20120;-78
2024/03/16 09:51:05;;;;;;;1.25;0.80;;;11.50;28.90;;;;;;4985763;28;20069;-78
2024/03/16 09:53:32;;;;;;;0.65;0.65;;;11.60;19.50;;;;;;4967547;28;20045;-78
2024/03/16 09:56:04;;;;;;;0.60;0.60;;;11.70;12.50;;;;;;5000448;28;20054;-77
2024/03/16 09:58:33;;;;;;;0.83;0.77;;;11.90;16.90;;;;;;4985218;28;20049;-78
2024/03/16 10:01:03;;;;;;;0.75;0.50;;;12.00;26.50;;;;;;5000188;28;20115;-77
2024/03/16 10:03:32;;;;;;;0.60;0.60;;;12.20;11.00;;;;;;4978698;28;20410;-79
2024/03/16 10:06:05;;;;;;;0.60;0.60;;;12.30;25.60;;;;;;4951230;28;20109;-79
2024/03/16 10:08:32;;;;;;;1.02;0.75;;;12.40;13.80;;;;;;4976838;28;20393;-78
2024/03/16 10:11:14;;;;;;;0.50;0.50;;;12.40;11.20;;;;;;5002003;28;20476;-77
2024/03/16 10:13:54;;;;;;;0.33;0.33;;;12.60;10.50;;;;;;4968009;28;20112;-77
2024/03/16 10:16:20;;;;;;;0.75;0.63;;;12.70;11.10;;;;;;4985355;28;20042;-77
2024/03/16 10:18:46;;;;;;;0.50;0.50;;;12.90;4.50;;;;;;4985967;28;20407;-78
2024/03/16 10:21:12;;;;;;;0.50;0.50;;;13.10;4.60;;;;;;5001432;28;20046;-78
2024/03/16 10:23:38;;;;;;;0.60;0.60;;;13.30;4.80;;;;;;4967227;28;20058;-77
2024/03/16 10:26:09;;;;;;;0.50;0.40;;;13.50;4.00;;;;;;4984272;28;20400;-77
2024/03/16 10:28:38;;;;;;;0.60;0.60;;;13.60;1.00;;;;;;5000447;28;20811;-77
2024/03/16 10:31:04;;;;;;;0.50;0.40;;;13.70;1.00;;;;;;5001891;28;20061;-78
2024/03/16 10:33:36;;;;;;;0.50;0.50;;;13.70;1.00;;;;;;4960636;28;20509;-77
2024/03/16 10:36:03;;;;;;;0.43;0.43;;;13.60;3.60;;;;;;4964336;28;20058;-76
2024/03/16 10:38:29;;;;;;;0.60;0.50;;;13.60;4.60;;;;;;4964737;28;20315;-78
2024/03/16 10:40:59;;;;;;;0.40;0.40;;;13.40;1.00;;;;;;4982831;28;20106;-77
2024/03/16 10:43:25;;;;;;;0.50;0.50;;;13.50;3.10;;;;;;4973687;28;20104;-77
2024/03/16 10:45:52;;;;;;;0.40;0.40;;;13.50;1.00;;;;;;4963524;28;20066;-77
2024/03/16 10:48:18;;;;;;;1.25;0.50;;;13.50;1.00;;;;;;4966391;28;20512;-78
2024/03/16 10:50:47;;;;;;;0.50;0.50;;;13.50;1.00;;;;;;4966500;28;20141;-78
2024/03/16 10:53:13;;;;;;;0.50;0.50;;;13.30;1.00;;;;;;4977634;28;20065;-77
2024/03/16 10:55:39;;;;;;;0.45;0.45;;;13.10;1.00;;;;;;4981690;28;20054;-77
2024/03/16 10:58:32;;;;;;;0.40;0.40;;;12.90;1.00;;;;;;4982624;28;20054;-77
2024/03/16 11:01:07;;;;;;;0.50;0.50;;;12.90;1.00;;;;;;4981287;28;20065;-77
2024/03/16 11:03:38;;;;;;;0.40;0.40;;;12.90;1.00;;;;;;4990721;28;20065;-78
2024/03/16 11:06:10;;;;;;;0.30;0.30;;;12.90;1.00;;;;;;4952965;28;20042;-77
2024/03/16 11:08:42;;;;;;;0.40;0.40;;;12.90;1.00;;;;;;4997640;28;20057;-77
2024/03/16 11:11:26;;;;;;;0.55;0.55;;;12.90;1.00;;;;;;4980694;28;20053;-77
2024/03/16 11:13:55;;;;;;;0.40;0.40;;;13.00;1.00;;;;;;4979105;28;20647;-78
2024/03/16 11:16:29;;;;;;;0.47;0.40;;;13.30;1.00;;;;;;4991219;28;20056;-76
2024/03/16 11:19:00;;;;;;;;;;;13.60;1.00;;;;;;4966390;28;20068;-76
2024/03/16 11:21:27;;;;;;;0.40;0.40;;;13.80;1.00;;;;;;4979383;28;19933;-76
2024/03/16 11:23:59;;;;;;;0.40;0.40;;;14.00;1.00;;;;;;4981444;28;20053;-76
2024/03/16 11:26:28;;;;;;;0.40;0.40;;;14.20;1.00;;;;;;4982222;28;20061;-76
2024/03/16 11:29:04;;;;;;;0.63;0.63;;;14.20;1.00;;;;;;4998303;28;20072;-76
2024/03/16 11:31:36;;;;;;;0.50;0.50;;;14.40;1.00;;;;;;4997925;28;20697;-76
2024/03/16 11:34:15;;;;;;;0.50;0.50;;;14.60;1.00;;;;;;4965521;28;20049;-75
2024/03/16 11:36:41;;;;;;;1.17;0.40;;;14.90;1.00;;;;;;4977870;28;20564;-76
2024/03/16 11:39:11;;;;;;;0.38;0.38;;;15.10;1.00;;;;;;4978442;28;20224;-76
2024/03/16 11:41:42;;;;;;;0.40;0.40;;;15.20;1.00;;;;;;4963765;28;20054;-78
2024/03/16 11:44:15;;;;;;;0.30;0.30;;;15.20;1.00;;;;;;4971765;28;20046;-77
2024/03/16 11:46:41;;;;;;;0.43;0.43;;;15.10;1.00;;;;;;4981107;28;20093;-77
2024/03/16 11:49:14;;;;;;;0.45;0.45;;;15.30;1.00;;;;;;4981433;28;20064;-78
2024/03/16 11:51:44;;;;;;;0.55;0.55;;;15.40;1.00;;;;;;4981182;28;20913;-77
2024/03/16 11:54:12;;;;;;;0.60;0.60;;;15.70;1.00;;;;;;4974182;28;20540;-77
2024/03/16 11:56:38;;;;;;;0.65;0.50;;;16.00;1.00;;;;;;4962622;28;20050;-77
2024/03/16 11:59:05;;;;;;;0.68;0.68;;;16.30;1.00;;;;;;4959036;28;20127;-77
2024/03/16 12:01:32;;;;;;;0.50;0.50;;;16.50;1.00;;;;;;4974479;28;20053;-77
2024/03/16 12:03:59;;;;;;;0.50;0.50;;;16.70;1.00;;;;;;4978370;28;20046;-77
2024/03/16 12:06:26;;;;;;;0.30;0.30;;;16.80;1.00;;;;;;4997009;28;20054;-77
2024/03/16 12:08:52;;;;;;;0.30;0.30;;;16.70;1.00;;;;;;4956076;28;20065;-77
2024/03/16 12:11:21;;;;;;;0.40;0.40;;;16.60;1.00;;;;;;4995194;28;20060;-78
2024/03/16 12:13:47;;;;;;;0.40;0.40;;;16.60;1.00;;;;;;4988755;28;20313;-77
2024/03/16 12:16:13;;;;;;;0.82;0.30;;;16.80;1.00;;;;;;4996784;28;20057;-78
2024/03/16 12:18:40;;;;;;;0.43;0.43;;;16.90;1.00;;;;;;4996546;28;20053;-78
2024/03/16 12:21:06;;;;;;;0.40;0.40;;;16.80;1.00;;;;;;4996863;28;20061;-78
2024/03/16 12:23:36;;;;;;;0.40;0.40;;;16.70;1.00;;;;;;4981485;28;20061;-79
2024/03/16 12:26:02;;;;;;;0.47;0.47;;;16.80;1.00;;;;;;4964542;28;20076;-80
2024/03/16 12:28:29;;;;;;;0.40;0.40;;;17.10;1.00;;;;;;4980800;28;20097;-80
2024/03/16 12:30:55;;;;;;;0.30;0.30;;;17.50;1.00;;;;;;4980783;28;20061;-79
2024/03/16 12:33:21;;;;;;;0.40;0.40;;;17.70;1.00;;;;;;4974218;28;20055;-80
2024/03/16 12:35:47;;;;;;;0.45;0.30;;;17.60;1.00;;;;;;4967277;28;20065;-80
2024/03/16 12:38:13;;;;;;;0.30;0.30;;;17.60;1.00;;;;;;4962390;28;20126;-79
2024/03/16 12:40:39;;;;;;;0.30;0.30;;;17.60;1.00;;;;;;4996669;28;20050;-79
2024/03/16 12:43:05;;;;;;;0.63;0.30;;;17.60;1.00;;;;;;4961703;28;20057;-79
2024/03/16 12:45:32;;;;;;;0.35;0.35;;;17.60;1.00;;;;;;4957251;28;20675;-79
2024/03/16 12:47:58;;;;;;;0.70;0.40;;;17.60;1.00;;;;;;4991320;28;20051;-80
2024/03/16 12:50:24;;;;;;;0.52;0.50;;;17.60;1.00;;;;;;4980922;28;20176;-80
2024/03/16 12:52:50;;;;;;;0.30;0.30;;;17.50;1.00;;;;;;4979405;28;20054;-80
2024/03/16 12:55:16;;;;;;;0.25;0.20;;;17.40;1.00;;;;;;4971416;28;20069;-80
2024/03/16 12:57:45;;;;;;;0.30;0.30;;;17.40;1.00;;;;;;4973212;28;20061;-79
2024/03/16 13:00:11;;;;;;;0.10;0.10;;;17.40;1.00;;;;;;4960010;28;20068;-80
2024/03/16 13:02:37;;;;;;;0.22;0.22;;;17.40;1.00;;;;;;4996266;28;20769;-80
2024/03/16 13:05:10;;;;;;;0.20;0.20;;;17.60;1.00;;;;;;4980710;28;20069;-79